Impacts TAF Board
For situational awareness. Not to be used for flight planning purposes.
IDs:

KSAN - San Diego Intl Arpt, CA, US

Issued at 2320 UTC 24 Mar 2019
Updated at 0134 UTC 25 Mar 2019
Potential Impact None Slight Moderate High
Time<<25/14Z 25/15Z 25/16Z 25/17Z 25/18Z 25/19Z 25/20Z 25/21Z 25/22Z 25/23Z 26/00Z 26/01Z 26/02Z>>
Type PRVL PRVL PRVL PRVL PRVL PRVL PRVL PRVL PRVL PRVL PRVL PRVL PRVL
VIS >6 >6 >6 >6 >6 >6 >6 >6 >6 >6 >6 >6 >6
CIG -- -- -- -- -- -- -- -- -- -- -- -- --
Cover SCT SCT SCT SCT SCT SKC SKC SKC SKC SKC SKC SKC SKC
FltCat VFR VFR VFR VFR VFR VFR VFR VFR VFR VFR VFR VFR VFR
WX -- -- -- -- -- -- -- -- -- -- -- -- --
WDir VRB VRB VRB VRB VRB 290 290 290 290 290 290 290 290
WSpd 5 5 5 5 5 14 14 14 14 14 14 14 14
WGst -- -- -- -- -- -- -- -- -- -- -- -- --
Raw TAF
KSAN 242320Z 2500/2606 29013KT P6SM FEW025 BKN200
  FM250330 VRB05KT P6SM SCT010
  FM251900 29014KT P6SM SKC
  FM260400 VRB05KT P6SM FEW010


METAR Board
Radar Display
Forecast Discussion
For situational awareness. Not to be used for flight planning purposes.